createdAt,value
2023-02-03T00:02:49.045Z,2.70
2023-02-03T00:06:42.424Z,3.00
2023-02-03T00:10:37.204Z,2.88
2023-02-03T00:14:29.648Z,3.00
2023-02-03T00:18:22.373Z,3.00
2023-02-03T00:22:14.881Z,2.90
2023-02-03T00:26:11.659Z,2.90
2023-02-03T00:30:05.443Z,2.78
2023-02-03T00:33:58.380Z,2.80
2023-02-03T00:37:57.641Z,2.90
2023-02-03T00:41:50.344Z,2.60
2023-02-03T00:45:43.135Z,3.28
2023-02-03T00:49:35.868Z,2.65
2023-02-03T00:53:28.505Z,2.40
2023-02-03T00:57:21.141Z,2.80
2023-02-03T01:01:13.970Z,2.55
2023-02-03T01:05:07.113Z,2.33
2023-02-03T01:09:02.292Z,2.92
2023-02-03T01:12:55.163Z,2.47
2023-02-03T01:16:47.786Z,2.30
2023-02-03T01:20:40.780Z,2.30
2023-02-03T01:24:33.399Z,2.22
2023-02-03T01:28:25.998Z,2.40
2023-02-03T01:32:18.700Z,2.70
2023-02-03T01:36:11.484Z,2.40
2023-02-03T01:40:05.191Z,1.90
2023-02-03T01:43:59.812Z,2.05
2023-02-03T01:47:58.341Z,2.20
2023-02-03T01:51:53.585Z,2.15
2023-02-03T01:55:49.976Z,2.05
2023-02-03T01:59:43.626Z,2.15
2023-02-03T02:03:50.789Z,2.30
2023-02-03T02:07:44.582Z,2.33
2023-02-03T02:11:37.685Z,2.33
2023-02-03T02:15:59.549Z,2.38
2023-02-03T02:20:20.911Z,2.03
2023-02-03T02:24:32.081Z,2.10
2023-02-03T02:28:39.722Z,2.20
2023-02-03T02:32:52.494Z,2.10
2023-02-03T02:37:02.526Z,2.00
2023-02-03T02:41:08.260Z,1.83
2023-02-03T02:45:16.372Z,2.40
2023-02-03T02:49:33.914Z,1.98
2023-02-03T02:53:30.154Z,2.10
2023-02-03T02:57:26.350Z,1.80
2023-02-03T03:01:19.471Z,1.92
2023-02-03T03:05:12.937Z,2.03
2023-02-03T03:09:07.567Z,2.83
2023-02-03T03:13:05.108Z,3.03
2023-02-03T03:20:55.339Z,3.25
2023-02-03T03:24:52.765Z,2.92
2023-02-03T03:28:54.718Z,2.90
2023-02-03T03:32:48.576Z,3.35
2023-02-03T03:36:48.089Z,2.75
2023-02-03T03:40:49.966Z,2.40
2023-02-03T03:45:08.612Z,3.08
2023-02-03T03:49:04.225Z,2.80
2023-02-03T03:53:00.710Z,3.13
2023-02-03T03:57:15.704Z,2.70
2023-02-03T04:01:09.328Z,2.72
2023-02-03T04:05:03.641Z,3.17
2023-02-03T04:08:56.527Z,2.58
2023-02-03T04:12:49.139Z,2.60
2023-02-03T04:16:41.676Z,2.40
2023-02-03T04:20:34.667Z,2.55
2023-02-03T04:24:27.294Z,3.25
2023-02-03T04:28:19.931Z,3.20
2023-02-03T04:32:13.771Z,2.78
2023-02-03T04:36:06.828Z,2.78
2023-02-03T04:39:59.450Z,2.90
2023-02-03T04:43:52.010Z,3.22
2023-02-03T04:47:44.645Z,3.28
2023-02-03T04:51:37.794Z,3.45
2023-02-03T04:55:30.180Z,3.10
2023-02-03T04:59:22.921Z,3.50
2023-02-03T05:03:16.581Z,3.28
2023-02-03T05:07:10.163Z,2.70
2023-02-03T05:11:03.574Z,3.05
2023-02-03T05:14:56.949Z,2.85
2023-02-03T05:18:49.643Z,3.30
2023-02-03T05:22:42.493Z,2.95
2023-02-03T05:26:36.275Z,4.10
2023-02-03T05:30:29.331Z,3.72
2023-02-03T05:34:22.134Z,4.10
2023-02-03T05:38:14.905Z,3.60
2023-02-03T05:42:08.295Z,4.45
2023-02-03T05:46:05.193Z,3.40
2023-02-03T05:49:57.974Z,2.85
2023-02-03T05:53:50.941Z,2.92
2023-02-03T05:57:43.707Z,2.47
2023-02-03T06:01:36.875Z,2.88
2023-02-03T06:05:30.713Z,2.40
2023-02-03T06:09:23.654Z,2.70
2023-02-03T06:13:16.974Z,3.10
2023-02-03T06:17:09.521Z,3.72
2023-02-03T06:21:02.271Z,3.70
2023-02-03T06:24:55.022Z,4.32
2023-02-03T06:28:47.575Z,4.60
2023-02-03T06:32:40.994Z,4.72
2023-02-03T06:36:33.673Z,4.82
2023-02-03T06:40:26.794Z,4.43
2023-02-03T06:44:19.706Z,4.70
2023-02-03T06:48:12.253Z,3.92
2023-02-03T06:52:04.949Z,3.78
2023-02-03T06:55:57.398Z,5.00
2023-02-03T06:59:50.126Z,5.13
2023-02-03T07:03:43.608Z,6.88
2023-02-03T07:07:36.994Z,7.00
2023-02-03T07:11:29.956Z,6.10
2023-02-03T07:15:22.700Z,6.05
2023-02-03T07:19:15.260Z,4.80
2023-02-03T07:23:08.602Z,6.72
2023-02-03T07:27:04.181Z,5.93
2023-02-03T07:30:57.738Z,4.50
2023-02-03T07:34:50.510Z,4.15
2023-02-03T07:38:43.270Z,4.68
2023-02-03T07:42:35.996Z,4.72
2023-02-03T07:46:28.649Z,5.07
2023-02-03T07:50:21.250Z,5.03
2023-02-03T07:54:15.503Z,5.28
2023-02-03T07:58:08.469Z,6.00
2023-02-03T08:02:01.107Z,7.13
2023-02-03T08:05:53.753Z,6.38
2023-02-03T08:09:46.848Z,6.18
2023-02-03T08:13:39.942Z,5.00
2023-02-03T08:17:33.756Z,6.43
2023-02-03T08:21:26.267Z,6.18
2023-02-03T08:25:20.578Z,6.50
2023-02-03T08:29:14.399Z,8.07
2023-02-03T08:33:07.878Z,8.48
2023-02-03T08:37:00.520Z,7.88
2023-02-03T08:40:52.991Z,7.53
2023-02-03T08:44:45.919Z,5.22
2023-02-03T08:48:39.581Z,5.03
2023-02-03T08:52:32.511Z,5.35
2023-02-03T08:56:26.604Z,6.10
2023-02-03T09:00:19.845Z,6.38
2023-02-03T09:04:13.188Z,7.07
2023-02-03T09:08:06.155Z,8.18
2023-02-03T09:12:02.556Z,8.98
2023-02-03T09:15:55.236Z,8.77
2023-02-03T09:19:47.890Z,8.75
2023-02-03T09:23:40.809Z,10.30
2023-02-03T09:27:33.690Z,8.95
2023-02-03T09:31:26.489Z,8.30
2023-02-03T09:35:19.805Z,8.38
2023-02-03T09:39:13.015Z,13.63
2023-02-03T09:43:48.177Z,8.88
2023-02-03T09:47:43.746Z,9.38
2023-02-03T09:51:46.420Z,10.27
2023-02-03T09:55:45.413Z,9.07
2023-02-03T09:59:38.985Z,5.63
2023-02-03T10:03:46.580Z,4.47
2023-02-03T10:07:57.479Z,5.03
2023-02-03T10:11:59.424Z,4.85
2023-02-03T10:16:24.700Z,5.20
2023-02-03T10:20:21.873Z,5.32
2023-02-03T10:24:40.679Z,5.93
2023-02-03T10:28:40.730Z,6.60
2023-02-03T10:32:36.297Z,6.10
2023-02-03T10:36:57.706Z,6.18
2023-02-03T10:40:50.679Z,6.47
2023-02-03T10:44:48.935Z,7.15
2023-02-03T10:48:41.597Z,6.57
2023-02-03T10:52:36.009Z,6.88
2023-02-03T10:56:37.177Z,6.65
2023-02-03T11:00:31.786Z,5.60
2023-02-03T11:04:30.759Z,5.70
2023-02-03T11:08:30.694Z,4.10
2023-02-03T11:12:23.397Z,3.15
2023-02-03T11:16:18.577Z,3.83
2023-02-03T11:20:17.808Z,4.28
2023-02-03T11:24:32.417Z,4.60
2023-02-03T11:28:28.484Z,4.32
2023-02-03T11:32:33.630Z,3.65
2023-02-03T11:36:28.021Z,3.78
2023-02-03T11:40:20.706Z,3.45
2023-02-03T11:44:19.262Z,3.67
2023-02-03T11:48:16.897Z,4.32
2023-02-03T11:52:57.338Z,4.45
2023-02-03T11:56:58.730Z,3.58
2023-02-03T12:01:19.265Z,3.42
2023-02-03T12:05:41.476Z,2.70
2023-02-03T12:09:50.458Z,4.93
2023-02-03T12:14:13.633Z,6.95
2023-02-03T12:18:11.765Z,4.28
2023-02-03T12:22:16.871Z,2.70
2023-02-03T12:26:18.644Z,2.42
2023-02-03T12:30:18.412Z,2.90
2023-02-03T12:34:21.113Z,3.53
2023-02-03T12:38:21.653Z,3.35
2023-02-03T12:42:19.379Z,4.53
2023-02-03T12:46:20.475Z,4.90
2023-02-03T12:50:41.019Z,3.67
2023-02-03T12:54:53.010Z,2.83
2023-02-03T12:59:01.950Z,2.78
2023-02-03T13:03:11.608Z,2.85
2023-02-03T13:07:33.709Z,9.32
2023-02-03T13:11:52.904Z,8.93
2023-02-03T13:15:49.929Z,11.88
2023-02-03T13:19:50.312Z,49.25
2023-02-03T13:23:48.512Z,33.35
2023-02-03T13:28:20.001Z,5.47
2023-02-03T13:32:36.894Z,4.05
2023-02-03T13:37:26.611Z,8.75
2023-02-03T13:41:30.047Z,12.48
2023-02-03T13:45:52.696Z,5.85
2023-02-03T13:49:53.867Z,8.00
2023-02-03T13:53:48.584Z,3.95
2023-02-03T13:57:41.548Z,4.93
2023-02-03T14:01:35.857Z,4.00
2023-02-03T14:05:43.832Z,3.92
2023-02-03T14:09:39.175Z,4.38
2023-02-03T14:13:32.111Z,3.67
2023-02-03T14:17:42.822Z,4.47
2023-02-03T14:21:55.297Z,4.43
2023-02-03T14:25:52.578Z,4.40
2023-02-03T14:29:45.439Z,9.93
2023-02-03T14:33:54.305Z,11.95
2023-02-03T14:38:00.624Z,8.57
2023-02-03T14:41:56.235Z,6.65
2023-02-03T14:45:54.558Z,4.90
2023-02-03T14:50:05.818Z,6.38
2023-02-03T14:54:29.139Z,8.48
2023-02-03T14:58:48.274Z,4.55
2023-02-03T15:03:06.940Z,5.32
2023-02-03T15:06:59.561Z,6.10
2023-02-03T15:10:52.715Z,4.82
2023-02-03T15:14:45.891Z,8.20
2023-02-03T15:18:39.859Z,5.18
2023-02-03T15:22:38.308Z,6.90
2023-02-03T15:26:32.345Z,5.22
2023-02-03T15:30:27.942Z,5.63
2023-02-03T15:34:39.685Z,5.50
2023-02-03T15:38:47.852Z,5.05
2023-02-03T15:42:54.850Z,6.95
2023-02-03T15:46:52.016Z,5.33
2023-02-03T15:50:56.833Z,5.03
2023-02-03T15:54:54.930Z,4.30
2023-02-03T15:58:48.322Z,4.82
2023-02-03T16:02:46.390Z,7.40
2023-02-03T16:06:41.019Z,5.82
2023-02-03T16:10:34.502Z,7.00
2023-02-03T16:14:35.443Z,4.18
2023-02-03T16:18:28.339Z,3.50
2023-02-03T16:22:36.292Z,7.22
2023-02-03T16:30:43.403Z,4.82
2023-02-03T16:34:54.782Z,3.95
2023-02-03T16:39:07.513Z,4.90
2023-02-03T16:43:19.212Z,5.38
2023-02-03T16:47:57.979Z,5.00
2023-02-03T16:51:50.853Z,5.00
2023-02-03T16:55:44.475Z,4.38
2023-02-03T16:59:37.264Z,3.25
2023-02-03T17:03:32.964Z,3.88
2023-02-03T17:07:26.149Z,7.50
2023-02-03T17:11:22.357Z,8.30
2023-02-03T17:15:15.213Z,3.55
2023-02-03T17:19:12.856Z,5.82
2023-02-03T17:23:05.909Z,4.32
2023-02-03T17:26:59.139Z,4.72
2023-02-03T17:31:00.352Z,6.15
2023-02-03T17:34:53.624Z,7.05
2023-02-03T17:55:34.091Z,4.28
2023-02-03T17:59:27.367Z,4.00
2023-02-03T18:03:20.161Z,4.00
2023-02-03T18:07:14.221Z,3.53
2023-02-03T18:11:07.775Z,3.38
2023-02-03T18:15:01.373Z,3.85
2023-02-03T18:18:55.526Z,4.07
2023-02-03T18:22:48.427Z,3.80
2023-02-03T18:26:51.896Z,3.10
2023-02-03T18:30:45.884Z,3.33
2023-02-03T18:34:39.414Z,3.50
2023-02-03T18:38:34.778Z,3.30
2023-02-03T18:42:28.394Z,10.52
2023-02-03T18:46:29.152Z,8.63
2023-02-03T18:50:22.691Z,11.43
2023-02-03T18:54:17.018Z,7.72
2023-02-03T18:58:13.420Z,5.43
2023-02-03T19:02:10.916Z,5.93
2023-02-03T19:06:10.541Z,4.10
2023-02-03T19:10:05.082Z,6.43
2023-02-03T19:13:59.792Z,3.40
2023-02-03T19:17:57.444Z,4.40
2023-02-03T19:21:53.261Z,4.47
2023-02-03T19:25:52.369Z,4.05
2023-02-03T19:29:47.008Z,3.25
2023-02-03T19:33:41.891Z,1.90
2023-02-03T19:37:35.600Z,2.83
2023-02-03T19:41:32.161Z,2.83
2023-02-03T19:45:26.657Z,2.78
2023-02-03T19:49:22.274Z,3.45
2023-02-03T19:53:19.112Z,3.08
2023-02-03T19:57:16.690Z,3.70
2023-02-03T20:01:15.057Z,3.88
2023-02-03T20:05:13.320Z,2.60
2023-02-03T20:09:07.875Z,2.55
2023-02-03T20:13:03.790Z,2.75
2023-02-03T20:16:59.289Z,3.37
2023-02-03T20:20:57.126Z,2.50
2023-02-03T20:24:51.693Z,3.00
2023-02-03T20:28:48.156Z,2.50
2023-02-03T20:32:43.969Z,1.77
2023-02-03T20:36:40.683Z,1.25
2023-02-03T20:40:35.482Z,1.40
2023-02-03T20:44:30.434Z,1.30
2023-02-03T20:48:26.723Z,1.63
2023-02-03T20:52:22.326Z,1.48
2023-02-03T20:56:18.282Z,1.60
2023-02-03T21:00:26.550Z,1.50
2023-02-03T21:04:38.994Z,1.38
2023-02-03T21:08:34.085Z,1.60
2023-02-03T21:12:29.571Z,1.70
2023-02-03T21:16:33.457Z,1.73
2023-02-03T21:20:33.605Z,1.58
2023-02-03T21:24:31.285Z,1.95
2023-02-03T21:28:32.853Z,2.15
2023-02-03T21:32:36.544Z,2.17
2023-02-03T21:36:38.780Z,3.03
2023-02-03T21:40:34.202Z,2.88
2023-02-03T21:44:32.572Z,2.20
2023-02-03T21:48:38.695Z,2.20
2023-02-03T21:52:38.972Z,2.50
2023-02-03T21:56:41.708Z,2.50
2023-02-03T22:00:40.141Z,2.40
2023-02-03T22:04:33.561Z,2.30
2023-02-03T22:08:28.135Z,2.55
2023-02-03T22:12:21.168Z,2.42
2023-02-03T22:16:15.214Z,1.92
2023-02-03T22:20:08.281Z,2.30
2023-02-03T22:24:01.267Z,2.20
2023-02-03T22:27:54.055Z,2.33
2023-02-03T22:31:46.709Z,2.70
2023-02-03T22:35:39.566Z,2.28
2023-02-03T22:39:32.802Z,2.72
2023-02-03T22:43:26.107Z,2.78
2023-02-03T22:47:18.694Z,2.40
2023-02-03T22:51:11.497Z,2.53
2023-02-03T22:55:04.903Z,2.30
2023-02-03T22:58:57.590Z,2.75
2023-02-03T23:02:50.955Z,2.70
2023-02-03T23:06:44.053Z,2.65
2023-02-03T23:10:36.522Z,2.58
2023-02-03T23:14:29.425Z,2.47
2023-02-03T23:18:22.226Z,2.45
2023-02-03T23:22:15.918Z,2.30
2023-02-03T23:26:08.614Z,2.65
2023-02-03T23:30:01.607Z,2.78
2023-02-03T23:34:14.104Z,2.08
2023-02-03T23:38:06.665Z,2.72
2023-02-03T23:41:59.359Z,2.70
2023-02-03T23:45:52.238Z,2.30
2023-02-03T23:49:45.246Z,2.83
2023-02-03T23:53:38.009Z,2.55
2023-02-03T23:57:30.921Z,2.35
